GLO9572 SBGL-SPJC
Flight info
| Callsign | GLO9572 |
|---|---|
| Flight time | N/A |
| Altitude | 32000 |
| Route | NAXOP UZ45 UKDAN UM415 ALGAN/N0457F360 UM415 VIR UN420 TRI UM668 URC UT321 PEROV/N0438F280 |
| Aircraft | B738/M-SDFGIKLORWXY/LB1 |
Departure
| Time | 2026-05-05 14:31 |
|---|---|
| Airport | Rio Galeão – Tom Jobim International Airport (SBGL) |
Arrival
| Time | N/A |
|---|---|
| Airport | Jorge Chávez International Airport (SPJC) |
| Time | Latitude | Longitude | Altitude | Speed | Heading |
|---|---|---|---|---|---|
| 2026-05-05 14:03 | -22.81344 | -43.24829 | 21 ft | 0 kts | 97° |
| 2026-05-05 14:20 | -22.81343 | -43.24841 | 21 ft | 3 kts | 93° |
| 2026-05-05 14:20 | -22.81343 | -43.24863 | 21 ft | 3 kts | 86° |
| 2026-05-05 14:20 | -22.81344 | -43.24885 | 21 ft | 3 kts | 96° |
| 2026-05-05 14:21 | -22.81342 | -43.24898 | 21 ft | 3 kts | 157° |
| 2026-05-05 14:21 | -22.81341 | -43.24899 | 21 ft | 0 kts | 185° |
| 2026-05-05 14:23 | -22.81368 | -43.24902 | 21 ft | 7 kts | 185° |
| 2026-05-05 14:24 | -22.81435 | -43.24909 | 21 ft | 11 kts | 193° |
| 2026-05-05 14:24 | -22.81471 | -43.24973 | 21 ft | 11 kts | 290° |
| 2026-05-05 14:24 | -22.81428 | -43.25054 | 23 ft | 14 kts | 300° |
| 2026-05-05 14:24 | -22.81366 | -43.25136 | 21 ft | 14 kts | 317° |
| 2026-05-05 14:25 | -22.81308 | -43.25217 | 21 ft | 14 kts | 305° |
| 2026-05-05 14:25 | -22.81239 | -43.25311 | 21 ft | 16 kts | 316° |
| 2026-05-05 14:25 | -22.81143 | -43.25371 | 21 ft | 16 kts | 342° |
| 2026-05-05 14:25 | -22.81037 | -43.25386 | 21 ft | 15 kts | 2° |
| 2026-05-05 14:26 | -22.80953 | -43.25415 | 22 ft | 13 kts | 301° |
| 2026-05-05 14:26 | -22.80913 | -43.25503 | 27 ft | 13 kts | 297° |
| 2026-05-05 14:26 | -22.80873 | -43.25590 | 24 ft | 15 kts | 296° |
| 2026-05-05 14:26 | -22.80814 | -43.25683 | 26 ft | 15 kts | 325° |
| 2026-05-05 14:27 | -22.80722 | -43.25649 | 26 ft | 15 kts | 34° |
| 2026-05-05 14:27 | -22.80637 | -43.25585 | 26 ft | 15 kts | 34° |
| 2026-05-05 14:27 | -22.80552 | -43.25527 | 29 ft | 14 kts | 17° |
| 2026-05-05 14:27 | -22.80477 | -43.25569 | 30 ft | 12 kts | 325° |
| 2026-05-05 14:28 | -22.80403 | -43.25614 | 28 ft | 13 kts | 346° |
| 2026-05-05 14:28 | -22.80349 | -43.25594 | 30 ft | 0 kts | 37° |
| 2026-05-05 14:28 | -22.80343 | -43.25589 | 28 ft | 2 kts | 37° |
| 2026-05-05 14:28 | -22.80336 | -43.25583 | 31 ft | 0 kts | 37° |
| 2026-05-05 14:29 | -22.80335 | -43.25583 | 31 ft | 1 kts | 37° |
| 2026-05-05 14:29 | -22.80292 | -43.25547 | 28 ft | 16 kts | 38° |
| 2026-05-05 14:29 | -22.80197 | -43.25480 | 24 ft | 16 kts | 25° |
| 2026-05-05 14:29 | -22.80171 | -43.25453 | 25 ft | 0 kts | 78° |
| 2026-05-05 14:30 | -22.80171 | -43.25451 | 25 ft | 0 kts | 78° |
| 2026-05-05 14:30 | -22.80153 | -43.25358 | 25 ft | 40 kts | 75° |
| 2026-05-05 14:30 | -22.80005 | -43.24804 | 27 ft | 111 kts | 75° |
| 2026-05-05 14:30 | -22.79744 | -43.23800 | 28 ft | 168 kts | 74° |
| 2026-05-05 14:31 | -22.79390 | -43.22427 | 293 ft | 197 kts | 74° |
| 2026-05-05 14:31 | -22.79056 | -43.21072 | 1411 ft | 183 kts | 75° |
| 2026-05-05 14:31 | -22.78746 | -43.19651 | 1889 ft | 209 kts | 76° |
| 2026-05-05 14:31 | -22.78399 | -43.18023 | 2235 ft | 233 kts | 76° |
| 2026-05-05 14:32 | -22.78026 | -43.16264 | 2894 ft | 240 kts | 76° |
| 2026-05-05 14:32 | -22.77655 | -43.14479 | 3641 ft | 245 kts | 77° |
| 2026-05-05 14:32 | -22.77275 | -43.12661 | 4376 ft | 250 kts | 77° |
| 2026-05-05 14:32 | -22.76887 | -43.10815 | 5188 ft | 251 kts | 78° |
| 2026-05-05 14:33 | -22.76496 | -43.08961 | 5946 ft | 254 kts | 78° |
| 2026-05-05 14:33 | -22.76101 | -43.07084 | 6688 ft | 257 kts | 80° |
| 2026-05-05 14:33 | -22.76163 | -43.05115 | 7048 ft | 272 kts | 112° |
| 2026-05-05 14:33 | -22.77289 | -43.03485 | 7634 ft | 275 kts | 145° |
| 2026-05-05 14:34 | -22.79040 | -43.02673 | 8394 ft | 277 kts | 171° |
| 2026-05-05 14:34 | -22.80953 | -43.02747 | 9184 ft | 279 kts | 194° |
| 2026-05-05 14:34 | -22.82727 | -43.03559 | 9940 ft | 282 kts | 209° |
| 2026-05-05 14:34 | -22.84191 | -43.05000 | 10531 ft | 295 kts | 235° |
| 2026-05-05 14:35 | -22.85159 | -43.07066 | 10720 ft | 320 kts | 244° |
| 2026-05-05 14:35 | -22.86073 | -43.09346 | 10982 ft | 338 kts | 246° |
| 2026-05-05 14:35 | -22.86763 | -43.11825 | 11562 ft | 347 kts | 256° |
| 2026-05-05 14:35 | -22.87208 | -43.14409 | 12284 ft | 350 kts | 258° |
| 2026-05-05 14:36 | -22.87610 | -43.17026 | 12919 ft | 355 kts | 259° |
| 2026-05-05 14:36 | -22.88010 | -43.19683 | 13575 ft | 359 kts | 259° |
| 2026-05-05 14:36 | -22.88419 | -43.22374 | 14227 ft | 363 kts | 259° |
| 2026-05-05 14:36 | -22.88839 | -43.25083 | 14862 ft | 366 kts | 259° |
| 2026-05-05 14:37 | -22.89271 | -43.27819 | 15520 ft | 369 kts | 259° |
| 2026-05-05 14:37 | -22.89705 | -43.30533 | 16170 ft | 372 kts | 259° |
| 2026-05-05 14:37 | -22.90154 | -43.33314 | 16795 ft | 375 kts | 259° |
| 2026-05-05 14:37 | -22.90607 | -43.36108 | 17418 ft | 379 kts | 259° |
| 2026-05-05 14:38 | -22.91066 | -43.38939 | 18034 ft | 382 kts | 259° |
| 2026-05-05 14:38 | -22.91529 | -43.41792 | 18632 ft | 386 kts | 259° |
| 2026-05-05 14:38 | -22.91997 | -43.44674 | 19155 ft | 389 kts | 258° |
| 2026-05-05 14:38 | -22.92468 | -43.47573 | 19700 ft | 391 kts | 258° |
| 2026-05-05 14:39 | -22.92941 | -43.50490 | 20230 ft | 394 kts | 258° |
| 2026-05-05 14:39 | -22.93419 | -43.53439 | 20746 ft | 397 kts | 258° |
| 2026-05-05 14:39 | -22.93899 | -43.56405 | 21269 ft | 400 kts | 258° |
| 2026-05-05 14:39 | -22.94375 | -43.59352 | 21783 ft | 404 kts | 258° |
| 2026-05-05 14:40 | -22.94863 | -43.62376 | 22300 ft | 407 kts | 258° |
| 2026-05-05 14:40 | -22.95353 | -43.65420 | 22801 ft | 410 kts | 258° |
| 2026-05-05 14:40 | -22.95846 | -43.68483 | 23293 ft | 413 kts | 257° |
| 2026-05-05 14:40 | -22.96342 | -43.71571 | 23782 ft | 416 kts | 257° |
| 2026-05-05 14:41 | -22.96841 | -43.74679 | 24195 ft | 418 kts | 257° |
| 2026-05-05 14:41 | -22.97338 | -43.77776 | 24640 ft | 420 kts | 258° |
| 2026-05-05 14:41 | -22.97838 | -43.80903 | 25092 ft | 421 kts | 258° |
| 2026-05-05 14:41 | -22.98338 | -43.84032 | 25535 ft | 422 kts | 258° |
| 2026-05-05 14:42 | -22.98841 | -43.87185 | 25957 ft | 423 kts | 258° |
| 2026-05-05 14:42 | -22.99345 | -43.90344 | 26370 ft | 425 kts | 258° |
| 2026-05-05 14:42 | -22.99843 | -43.93468 | 26769 ft | 427 kts | 258° |
| 2026-05-05 14:42 | -23.00349 | -43.96653 | 27168 ft | 428 kts | 258° |
| 2026-05-05 14:43 | -23.00858 | -43.99859 | 27571 ft | 430 kts | 258° |
| 2026-05-05 14:43 | -23.01367 | -44.03067 | 27966 ft | 431 kts | 258° |
| 2026-05-05 14:43 | -23.01872 | -44.06251 | 28338 ft | 433 kts | 258° |
| 2026-05-05 14:43 | -23.02385 | -44.09494 | 28709 ft | 434 kts | 258° |
| 2026-05-05 14:44 | -23.02891 | -44.12696 | 29062 ft | 436 kts | 259° |
| 2026-05-05 14:44 | -23.03405 | -44.15958 | 29446 ft | 437 kts | 259° |
| 2026-05-05 14:44 | -23.03922 | -44.19237 | 29805 ft | 439 kts | 259° |
| 2026-05-05 14:44 | -23.04431 | -44.22472 | 30150 ft | 441 kts | 259° |
| 2026-05-05 14:45 | -23.04948 | -44.25764 | 30484 ft | 441 kts | 259° |
| 2026-05-05 14:45 | -23.05463 | -44.29052 | 30932 ft | 438 kts | 259° |
| 2026-05-05 14:45 | -23.05966 | -44.32261 | 31420 ft | 434 kts | 259° |
| 2026-05-05 14:45 | -23.06472 | -44.35501 | 31861 ft | 432 kts | 259° |
| 2026-05-05 14:46 | -23.06976 | -44.38724 | 32189 ft | 432 kts | 259° |
| 2026-05-05 14:46 | -23.07478 | -44.41933 | 32185 ft | 437 kts | 259° |
| 2026-05-05 14:46 | -23.08492 | -44.48442 | 32193 ft | 434 kts | 259° |
| 2026-05-05 14:47 | -23.09483 | -44.54834 | 32211 ft | 430 kts | 259° |
| 2026-05-05 14:47 | -23.10479 | -44.61261 | 32216 ft | 431 kts | 259° |
| 2026-05-05 14:48 | -23.11468 | -44.67661 | 32216 ft | 432 kts | 259° |
| 2026-05-05 14:48 | -23.12463 | -44.74121 | 32219 ft | 433 kts | 259° |
| 2026-05-05 14:49 | -23.13451 | -44.80555 | 32217 ft | 434 kts | 259° |
| 2026-05-05 14:49 | -23.14444 | -44.87036 | 32220 ft | 434 kts | 259° |
| 2026-05-05 14:50 | -23.15427 | -44.93474 | 32219 ft | 434 kts | 259° |
| 2026-05-05 14:50 | -23.16412 | -44.99949 | 32220 ft | 433 kts | 258° |
| 2026-05-05 14:51 | -23.17393 | -45.06402 | 32232 ft | 432 kts | 259° |
| 2026-05-05 14:51 | -23.18362 | -45.12806 | 32221 ft | 431 kts | 259° |
| 2026-05-05 14:52 | -23.19336 | -45.19252 | 32224 ft | 430 kts | 259° |
| 2026-05-05 14:52 | -23.20295 | -45.25623 | 32241 ft | 429 kts | 259° |
| 2026-05-05 14:53 | -23.21258 | -45.32038 | 32246 ft | 429 kts | 259° |
| 2026-05-05 14:53 | -23.22213 | -45.38410 | 32253 ft | 428 kts | 259° |
| 2026-05-05 14:54 | -23.23167 | -45.44805 | 32250 ft | 428 kts | 258° |
| 2026-05-05 14:54 | -23.24114 | -45.51163 | 32250 ft | 428 kts | 258° |
| 2026-05-05 14:55 | -23.24906 | -45.56498 | 32246 ft | 428 kts | 258° |
| 2026-05-05 14:55 | -23.26006 | -45.63928 | 32266 ft | 427 kts | 258° |
| 2026-05-05 14:56 | -23.26944 | -45.70283 | 32274 ft | 427 kts | 258° |
| 2026-05-05 14:56 | -23.27727 | -45.75601 | 32283 ft | 427 kts | 258° |
| 2026-05-05 14:57 | -23.28664 | -45.81980 | 32294 ft | 426 kts | 258° |
| 2026-05-05 14:57 | -23.29591 | -45.88314 | 32228 ft | 425 kts | 258° |
| 2026-05-05 14:58 | -23.30519 | -45.94674 | 32224 ft | 425 kts | 258° |
| 2026-05-05 14:58 | -23.31445 | -46.01034 | 32227 ft | 425 kts | 258° |
| 2026-05-05 14:59 | -23.32362 | -46.07349 | 32226 ft | 425 kts | 258° |
| 2026-05-05 14:59 | -23.33284 | -46.13723 | 32222 ft | 425 kts | 258° |
| 2026-05-05 15:00 | -23.34184 | -46.19961 | 32222 ft | 425 kts | 258° |
| 2026-05-05 15:00 | -23.35100 | -46.26327 | 32224 ft | 425 kts | 258° |
| 2026-05-05 15:01 | -23.36010 | -46.32665 | 32228 ft | 425 kts | 258° |
| 2026-05-05 15:01 | -23.36914 | -46.38990 | 32248 ft | 425 kts | 258° |
| 2026-05-05 15:02 | -23.37822 | -46.45357 | 32267 ft | 425 kts | 258° |
| 2026-05-05 15:02 | -23.38722 | -46.51689 | 32297 ft | 425 kts | 258° |
| 2026-05-05 15:03 | -23.39627 | -46.58067 | 32287 ft | 425 kts | 258° |
| 2026-05-05 15:03 | -23.40374 | -46.63358 | 32288 ft | 425 kts | 258° |